createdAt,value
2022-11-15T00:00:22.083Z,100864.28
2022-11-15T00:03:08.184Z,100864.97
2022-11-15T00:05:55.184Z,100858.22
2022-11-15T00:08:41.220Z,100854.91
2022-11-15T00:11:28.204Z,100848.91
2022-11-15T00:14:14.169Z,100853.06
2022-11-15T00:17:00.487Z,100845.41
2022-11-15T00:19:46.678Z,100838.34
2022-11-15T00:22:34.455Z,100834.03
2022-11-15T00:25:20.899Z,100828.78
2022-11-15T00:28:07.261Z,100823.59
2022-11-15T00:30:53.705Z,100826.97
2022-11-15T00:33:40.043Z,100807.03
2022-11-15T00:36:26.387Z,100817.53
2022-11-15T00:39:12.769Z,100811.47
2022-11-15T00:41:59.050Z,100811.63
2022-11-15T00:44:45.397Z,100811.56
2022-11-15T00:47:31.760Z,100798.31
2022-11-15T00:50:18.615Z,100796.56
2022-11-15T00:53:04.870Z,100790.63
2022-11-15T00:55:51.787Z,100782.09
2022-11-15T00:58:38.016Z,100773.41
2022-11-15T01:01:24.278Z,100779.47
2022-11-15T01:04:10.560Z,100766.38
2022-11-15T01:06:56.937Z,100764.69
2022-11-15T01:09:43.317Z,100765.50
2022-11-15T01:12:29.565Z,100759.34
2022-11-15T01:15:15.784Z,100754.38
2022-11-15T01:18:02.124Z,100756.09
2022-11-15T01:20:48.308Z,100757.66
2022-11-15T01:23:35.141Z,100750.84
2022-11-15T01:26:21.538Z,100752.78
2022-11-15T01:29:08.047Z,100737.91
2022-11-15T01:31:55.087Z,100737.06
2022-11-15T01:34:41.265Z,100733.59
2022-11-15T01:37:27.510Z,100726.78
2022-11-15T01:40:14.079Z,100721.66
2022-11-15T01:43:00.208Z,100719.00
2022-11-15T01:45:52.206Z,100711.91
2022-11-15T01:48:38.584Z,100704.81
2022-11-15T01:51:29.506Z,100708.50
2022-11-15T01:54:19.820Z,100693.91
2022-11-15T01:57:11.367Z,100686.97
2022-11-15T01:59:58.318Z,100681.75
2022-11-15T02:02:45.067Z,100686.97
2022-11-15T02:05:32.641Z,100709.44
2022-11-15T02:08:21.011Z,100699.81
2022-11-15T02:11:10.982Z,100685.13
2022-11-15T02:14:00.519Z,100689.47
2022-11-15T02:17:15.691Z,100679.00
2022-11-15T02:20:20.029Z,100680.16
2022-11-15T02:23:16.949Z,100673.22
2022-11-15T02:26:08.826Z,100674.19
2022-11-15T02:29:25.246Z,100669.53
2022-11-15T02:32:25.909Z,100676.41
2022-11-15T02:35:38.535Z,100671.16
2022-11-15T02:39:09.770Z,100664.41
2022-11-15T02:42:03.271Z,100670.66
2022-11-15T02:44:51.310Z,100671.75
2022-11-15T02:47:46.680Z,100663.88
2022-11-15T02:50:35.270Z,100668.94
2022-11-15T02:53:26.553Z,100666.41
2022-11-15T02:56:13.714Z,100658.44
2022-11-15T02:59:13.545Z,100653.41
2022-11-15T03:02:29.715Z,100652.41
2022-11-15T03:05:33.412Z,100645.34
2022-11-15T03:08:31.927Z,100647.16
2022-11-15T03:11:21.461Z,100642.88
2022-11-15T03:14:19.712Z,100640.53
2022-11-15T03:17:27.471Z,100634.41
2022-11-15T03:20:17.911Z,100627.47
2022-11-15T03:23:09.120Z,100630.06
2022-11-15T03:25:57.411Z,100628.41
2022-11-15T03:29:00.572Z,100627.44
2022-11-15T03:31:57.966Z,100612.78
2022-11-15T03:35:09.126Z,100601.50
2022-11-15T03:38:19.878Z,100602.94
2022-11-15T03:41:21.128Z,100592.63
2022-11-15T03:44:32.809Z,100586.50
2022-11-15T03:47:43.227Z,100587.47
2022-11-15T03:50:30.562Z,100581.50
2022-11-15T03:53:17.928Z,100579.78
2022-11-15T03:56:04.849Z,100578.00
2022-11-15T03:58:50.922Z,100571.13
2022-11-15T04:01:37.272Z,100565.75
2022-11-15T04:04:23.633Z,100571.78
2022-11-15T04:07:10.202Z,100555.22
2022-11-15T04:10:06.403Z,100562.19
2022-11-15T04:12:53.183Z,100563.84
2022-11-15T04:15:39.227Z,100564.84
2022-11-15T04:18:26.082Z,100545.94
2022-11-15T04:21:31.046Z,100551.06
2022-11-15T04:24:17.933Z,100550.25
2022-11-15T04:27:04.572Z,100547.38
2022-11-15T04:29:50.783Z,100552.09
2022-11-15T04:32:37.029Z,100547.59
2022-11-15T04:35:23.358Z,100543.50
2022-11-15T04:38:11.745Z,100545.16
2022-11-15T04:40:57.951Z,100542.50
2022-11-15T04:43:44.176Z,100540.97
2022-11-15T04:46:30.236Z,100531.41
2022-11-15T04:49:16.550Z,100527.94
2022-11-15T04:52:03.057Z,100530.41
2022-11-15T04:54:49.172Z,100532.22
2022-11-15T04:57:36.008Z,100520.94
2022-11-15T05:00:22.424Z,100526.09
2022-11-15T05:03:29.505Z,100518.41
2022-11-15T05:06:15.982Z,100524.38
2022-11-15T05:09:02.446Z,100518.38
2022-11-15T05:11:48.926Z,100519.13
2022-11-15T05:14:35.209Z,100520.91
2022-11-15T05:17:21.400Z,100517.47
2022-11-15T05:20:08.251Z,100519.28
2022-11-15T05:22:56.480Z,100508.72
2022-11-15T05:25:43.099Z,100514.22
2022-11-15T05:28:29.444Z,100503.78
2022-11-15T05:31:17.494Z,100504.56
2022-11-15T05:34:06.420Z,100501.97
2022-11-15T05:36:53.326Z,100503.81
2022-11-15T05:39:39.538Z,100501.13
2022-11-15T05:42:27.845Z,100508.19
2022-11-15T05:45:14.534Z,100502.97
2022-11-15T05:48:06.632Z,100498.63
2022-11-15T05:50:53.614Z,100510.75
2022-11-15T05:53:40.039Z,100511.78
2022-11-15T05:56:27.068Z,100510.66
2022-11-15T05:59:14.136Z,100503.72
2022-11-15T06:02:00.646Z,100507.25
2022-11-15T06:04:47.300Z,100508.03
2022-11-15T06:07:33.319Z,100505.47
2022-11-15T06:10:19.693Z,100505.28
2022-11-15T06:13:06.294Z,100504.56
2022-11-15T06:15:56.002Z,100511.53
2022-11-15T06:18:42.270Z,100509.88
2022-11-15T06:21:31.183Z,100507.25
2022-11-15T06:24:17.325Z,100515.97
2022-11-15T06:27:03.557Z,100511.66
2022-11-15T06:29:49.749Z,100505.47
2022-11-15T06:32:36.008Z,100502.94
2022-11-15T06:35:22.147Z,100508.06
2022-11-15T06:38:11.683Z,100510.81
2022-11-15T06:41:04.660Z,100505.56
2022-11-15T06:43:51.223Z,100516.78
2022-11-15T06:46:37.432Z,100514.97
2022-11-15T06:49:23.638Z,100513.97
2022-11-15T06:52:09.809Z,100512.38
2022-11-15T06:54:56.521Z,100514.69
2022-11-15T06:57:53.414Z,100514.78
2022-11-15T07:00:39.957Z,100513.19
2022-11-15T07:03:27.107Z,100519.50
2022-11-15T07:06:13.490Z,100528.91
2022-11-15T07:08:59.672Z,100518.22
2022-11-15T07:11:45.894Z,100518.28
2022-11-15T07:14:32.117Z,100511.41
2022-11-15T07:17:18.577Z,100517.47
2022-11-15T07:20:05.121Z,100505.28
2022-11-15T07:22:51.623Z,100512.13
2022-11-15T07:25:37.989Z,100515.81
2022-11-15T07:28:24.232Z,100510.56
2022-11-15T07:31:11.220Z,100506.00
2022-11-15T07:33:57.544Z,100512.19
2022-11-15T07:36:43.531Z,100510.28
2022-11-15T07:39:29.644Z,100510.25
2022-11-15T07:42:51.212Z,100502.50
2022-11-15T07:45:43.725Z,100500.63
2022-11-15T07:48:42.847Z,100499.81
2022-11-15T07:51:30.280Z,100499.69
2022-11-15T07:54:16.673Z,100499.69
2022-11-15T07:57:07.321Z,100503.06
2022-11-15T07:59:53.959Z,100497.09
2022-11-15T08:02:40.957Z,100496.38
2022-11-15T08:05:27.647Z,100495.13
2022-11-15T08:08:14.233Z,100486.47
2022-11-15T08:11:00.655Z,100487.41
2022-11-15T08:13:47.019Z,100483.59
2022-11-15T08:16:33.369Z,100476.00
2022-11-15T08:19:19.428Z,100469.28
2022-11-15T08:22:05.695Z,100467.56
2022-11-15T08:24:51.947Z,100473.50
2022-11-15T08:27:38.329Z,100469.94
2022-11-15T08:30:25.578Z,100462.91
2022-11-15T08:33:15.532Z,100466.41
2022-11-15T08:36:02.681Z,100464.38
2022-11-15T08:38:48.727Z,100459.28
2022-11-15T08:41:37.817Z,100462.78
2022-11-15T08:44:25.101Z,100452.56
2022-11-15T08:47:14.665Z,100454.97
2022-11-15T08:50:00.977Z,100458.06
2022-11-15T08:52:49.212Z,100452.78
2022-11-15T08:55:38.296Z,100449.50
2022-11-15T08:58:24.676Z,100454.03
2022-11-15T09:01:21.856Z,100452.06
2022-11-15T09:04:08.441Z,100452.81
2022-11-15T09:06:54.646Z,100446.63
2022-11-15T09:09:41.914Z,100448.63
2022-11-15T09:12:28.183Z,100446.72
2022-11-15T09:15:14.411Z,100440.66
2022-11-15T09:18:00.904Z,100443.13
2022-11-15T09:20:47.551Z,100436.16
2022-11-15T09:23:34.136Z,100434.91
2022-11-15T09:26:20.718Z,100435.00
2022-11-15T09:29:06.835Z,100422.59
2022-11-15T09:31:56.275Z,100420.72
2022-11-15T09:34:42.590Z,100418.59
2022-11-15T09:37:28.875Z,100405.47
2022-11-15T09:40:18.499Z,100418.44
2022-11-15T09:43:51.919Z,100405.31
2022-11-15T09:47:05.351Z,100407.72
2022-11-15T09:50:21.246Z,100392.75
2022-11-15T09:52:49.722Z,100389.53
2022-11-15T09:55:22.365Z,100391.41
2022-11-15T09:58:01.700Z,100385.41
2022-11-15T10:00:50.191Z,100386.75
2022-11-15T10:03:23.020Z,100375.47
2022-11-15T10:05:55.194Z,100379.56
2022-11-15T10:08:32.081Z,100371.75
2022-11-15T10:14:05.974Z,100371.31
2022-11-15T10:17:03.051Z,100375.13
2022-11-15T10:19:42.346Z,100373.50
2022-11-15T10:22:31.020Z,100375.94
2022-11-15T10:25:21.769Z,100376.31
2022-11-15T10:27:56.581Z,100383.69
2022-11-15T10:30:30.905Z,100372.25
2022-11-15T10:32:58.804Z,100366.03
2022-11-15T10:35:28.022Z,100373.22
2022-11-15T10:38:08.463Z,100367.97
2022-11-15T10:40:37.722Z,100367.03
2022-11-15T10:43:20.018Z,100364.06
2022-11-15T10:45:48.707Z,100355.50
2022-11-15T10:48:19.535Z,100350.34
2022-11-15T10:50:49.362Z,100347.09
2022-11-15T10:53:26.187Z,100349.81
2022-11-15T10:56:06.332Z,100347.50
2022-11-15T10:58:44.878Z,100352.00
2022-11-15T11:01:20.199Z,100345.81
2022-11-15T11:04:00.336Z,100341.53
2022-11-15T11:06:28.837Z,100338.88
2022-11-15T11:09:06.218Z,100339.50
2022-11-15T11:12:01.104Z,100331.97
2022-11-15T11:14:34.537Z,100330.06
2022-11-15T11:17:33.124Z,100321.38
2022-11-15T11:20:13.175Z,100320.53
2022-11-15T11:23:21.676Z,100321.47
2022-11-15T11:26:02.700Z,100320.88
2022-11-15T11:28:54.358Z,100322.59
2022-11-15T11:31:28.160Z,100321.72
2022-11-15T11:34:49.225Z,100318.34
2022-11-15T11:37:28.970Z,100317.56
2022-11-15T11:40:25.463Z,100312.41
2022-11-15T11:43:00.494Z,100315.72
2022-11-15T11:45:54.303Z,100307.88
2022-11-15T11:48:38.140Z,100305.31
2022-11-15T11:51:43.192Z,100303.53
2022-11-15T11:54:20.417Z,100302.84
2022-11-15T11:56:49.568Z,100299.31
2022-11-15T11:59:39.754Z,100288.59
2022-11-15T12:02:29.553Z,100283.41
2022-11-15T12:05:19.312Z,100279.69
2022-11-15T12:07:51.652Z,100271.69
2022-11-15T12:10:28.857Z,100268.97
2022-11-15T12:13:20.654Z,100264.53
2022-11-15T12:16:02.142Z,100250.91
2022-11-15T12:18:32.788Z,100251.13
2022-11-15T12:21:09.679Z,100251.72
2022-11-15T12:23:55.824Z,100263.09
2022-11-15T12:26:34.591Z,100259.72
2022-11-15T12:29:10.663Z,100263.44
2022-11-15T12:31:40.700Z,100256.47
2022-11-15T12:34:25.977Z,100256.47
2022-11-15T12:36:54.219Z,100244.31
2022-11-15T12:39:42.021Z,100245.91
2022-11-15T12:42:12.674Z,100242.59
2022-11-15T12:44:40.187Z,100244.16
2022-11-15T12:47:10.987Z,100251.28
2022-11-15T12:49:38.550Z,100243.22
2022-11-15T12:52:08.698Z,100245.63
2022-11-15T12:54:42.319Z,100242.97
2022-11-15T12:57:33.850Z,100241.25
2022-11-15T13:00:25.283Z,100230.25
2022-11-15T13:03:24.580Z,100230.31
2022-11-15T13:05:57.498Z,100225.19
2022-11-15T13:08:48.605Z,100231.00
2022-11-15T13:11:45.739Z,100222.22
2022-11-15T13:14:38.388Z,100226.66
2022-11-15T13:17:20.825Z,100224.75
2022-11-15T13:20:01.506Z,100225.06
2022-11-15T13:23:14.488Z,100223.75
2022-11-15T13:26:00.995Z,100215.78
2022-11-15T13:28:31.585Z,100214.91
2022-11-15T13:31:29.838Z,100221.22
2022-11-15T13:34:36.562Z,100227.59
2022-11-15T13:37:03.423Z,100214.59
2022-11-15T13:39:33.746Z,100203.50
2022-11-15T13:42:01.807Z,100210.44
2022-11-15T13:44:32.846Z,100208.53
2022-11-15T13:47:05.410Z,100202.38
2022-11-15T13:49:34.669Z,100200.56
2022-11-15T13:52:06.543Z,100201.69
2022-11-15T13:55:04.594Z,100195.06
2022-11-15T13:57:49.497Z,100191.41
2022-11-15T14:00:44.716Z,100187.84
2022-11-15T14:03:18.644Z,100178.53
2022-11-15T14:06:13.091Z,100190.06
2022-11-15T14:08:58.084Z,100195.34
2022-11-15T14:11:26.209Z,100196.34
2022-11-15T14:14:10.252Z,100195.53
2022-11-15T14:16:46.343Z,100191.44
2022-11-15T14:19:36.037Z,100188.91
2022-11-15T14:22:16.826Z,100187.66
2022-11-15T14:24:47.725Z,100178.28
2022-11-15T14:27:21.557Z,100174.84
2022-11-15T14:29:50.584Z,100173.66
2022-11-15T14:32:22.040Z,100178.69
2022-11-15T14:34:55.162Z,100169.28
2022-11-15T14:37:35.565Z,100170.09
2022-11-15T14:40:06.220Z,100157.00
2022-11-15T14:42:34.090Z,100170.63
2022-11-15T14:45:02.335Z,100168.31
2022-11-15T14:47:29.993Z,100174.66
2022-11-15T14:49:57.860Z,100169.84
2022-11-15T14:52:37.321Z,100165.69
2022-11-15T14:55:24.210Z,100172.53
2022-11-15T14:57:53.407Z,100164.06
2022-11-15T15:00:22.205Z,100169.41
2022-11-15T15:02:55.085Z,100164.38
2022-11-15T15:05:34.264Z,100173.94
2022-11-15T15:08:02.454Z,100181.09
2022-11-15T15:10:42.448Z,100174.84
2022-11-15T15:13:25.091Z,100165.59
2022-11-15T15:15:54.031Z,100162.03
2022-11-15T15:18:21.972Z,100161.38
2022-11-15T15:21:08.196Z,100164.81
2022-11-15T15:23:36.776Z,100167.22
2022-11-15T15:26:04.948Z,100158.63
2022-11-15T15:28:34.857Z,100165.50
2022-11-15T15:31:03.429Z,100160.31
2022-11-15T15:33:31.025Z,100155.22
2022-11-15T15:36:00.199Z,100156.94
2022-11-15T15:38:27.979Z,100167.28
2022-11-15T15:40:56.327Z,100165.63
2022-11-15T15:43:23.915Z,100156.81
2022-11-15T15:45:51.823Z,100152.06
2022-11-15T15:48:19.571Z,100145.16
2022-11-15T15:50:48.304Z,100156.69
2022-11-15T15:53:15.992Z,100150.50
2022-11-15T15:55:43.830Z,100146.66
2022-11-15T15:58:11.423Z,100150.88
2022-11-15T16:00:39.834Z,100147.19
2022-11-15T16:03:07.506Z,100140.59
2022-11-15T16:05:35.587Z,100132.72
2022-11-15T16:08:03.588Z,100127.81
2022-11-15T16:10:35.283Z,100135.59
2022-11-15T16:13:03.030Z,100132.47
2022-11-15T16:15:33.033Z,100136.66
2022-11-15T16:18:02.572Z,100128.97
2022-11-15T16:20:43.318Z,100132.34
2022-11-15T16:23:16.081Z,100147.75
2022-11-15T16:25:53.078Z,100144.25
2022-11-15T16:28:22.609Z,100137.53
2022-11-15T16:31:00.689Z,100137.53
2022-11-15T16:33:28.489Z,100141.41
2022-11-15T16:35:56.467Z,100138.09
2022-11-15T16:38:24.112Z,100142.06
2022-11-15T16:40:52.074Z,100139.94
2022-11-15T16:43:19.777Z,100142.50
2022-11-15T16:45:49.454Z,100132.06
2022-11-15T16:48:29.857Z,100139.25
2022-11-15T16:50:59.669Z,100140.34
2022-11-15T16:53:28.229Z,100110.59
2022-11-15T16:55:56.565Z,100133.78
2022-11-15T16:58:25.073Z,100140.63
2022-11-15T17:00:57.242Z,100135.88
2022-11-15T17:03:25.313Z,100134.38
2022-11-15T17:05:57.860Z,100129.53
2022-11-15T17:08:28.632Z,100138.41
2022-11-15T17:10:56.527Z,100141.19
2022-11-15T17:13:24.238Z,100135.78
2022-11-15T17:16:02.938Z,100143.59
2022-11-15T17:18:30.758Z,100134.94
2022-11-15T17:21:03.363Z,100109.88
2022-11-15T17:23:30.989Z,100126.91
2022-11-15T17:26:17.881Z,100131.44
2022-11-15T17:28:56.699Z,100128.06
2022-11-15T17:31:25.493Z,100124.63
2022-11-15T17:33:53.371Z,100126.50
2022-11-15T17:36:21.192Z,100119.66
2022-11-15T17:38:56.585Z,100111.94
2022-11-15T17:41:28.289Z,100126.56
2022-11-15T17:44:00.131Z,100121.31
2022-11-15T17:46:29.323Z,100124.84
2022-11-15T17:48:58.044Z,100125.78
2022-11-15T17:51:26.315Z,100126.56
2022-11-15T17:53:55.337Z,100123.06
2022-11-15T17:56:25.410Z,100130.28
2022-11-15T17:58:58.856Z,100119.72
2022-11-15T18:01:35.060Z,100124.97
2022-11-15T18:04:05.570Z,100125.66
2022-11-15T18:06:35.073Z,100123.97
2022-11-15T18:09:03.917Z,100118.16
2022-11-15T18:11:41.451Z,100121.41
2022-11-15T18:14:13.776Z,100112.06
2022-11-15T18:16:42.157Z,100106.06
2022-11-15T18:19:13.362Z,100102.97
2022-11-15T18:21:57.931Z,100102.97
2022-11-15T18:24:34.933Z,100101.91
2022-11-15T18:27:05.296Z,100109.72
2022-11-15T18:29:34.615Z,100096.81
2022-11-15T18:32:05.075Z,100100.50
2022-11-15T18:34:34.131Z,100094.97
2022-11-15T18:37:03.403Z,100099.38
2022-11-15T18:39:31.217Z,100101.16
2022-11-15T18:41:59.511Z,100100.94
2022-11-15T18:44:30.130Z,100106.00
2022-11-15T18:46:58.658Z,100102.50
2022-11-15T18:49:26.464Z,100099.34
2022-11-15T18:51:54.967Z,100108.81
2022-11-15T18:54:25.598Z,100102.78
2022-11-15T18:56:56.139Z,100109.50
2022-11-15T18:59:23.811Z,100110.28
2022-11-15T19:01:52.241Z,100123.19
2022-11-15T19:04:20.874Z,100122.53
2022-11-15T19:06:50.515Z,100118.97
2022-11-15T19:09:19.686Z,100113.03
2022-11-15T19:11:51.540Z,100111.19
2022-11-15T19:14:23.904Z,100106.06
2022-11-15T19:16:52.761Z,100110.44
2022-11-15T19:19:23.794Z,100107.66
2022-11-15T19:21:52.627Z,100093.97
2022-11-15T19:24:21.039Z,100101.00
2022-11-15T19:26:49.198Z,100102.81
2022-11-15T19:29:18.213Z,100095.84
2022-11-15T19:31:48.643Z,100093.34
2022-11-15T19:34:17.886Z,100094.88
2022-11-15T19:36:46.497Z,100095.69
2022-11-15T19:39:17.894Z,100092.22
2022-11-15T19:41:46.473Z,100085.25
2022-11-15T19:44:15.122Z,100078.34
2022-11-15T19:46:44.379Z,100087.06
2022-11-15T19:49:12.304Z,100081.81
2022-11-15T19:51:42.661Z,100088.09
2022-11-15T19:54:11.082Z,100081.19
2022-11-15T19:56:40.174Z,100076.03
2022-11-15T19:59:08.133Z,100083.81
2022-11-15T20:01:38.843Z,100079.34
2022-11-15T20:04:08.076Z,100081.03
2022-11-15T20:06:42.212Z,100076.78
2022-11-15T20:09:13.734Z,100080.53
2022-11-15T20:11:41.866Z,100067.19
2022-11-15T20:14:11.649Z,100062.75
2022-11-15T20:16:39.905Z,100066.50
2022-11-15T20:19:08.696Z,100067.47
2022-11-15T20:21:36.878Z,100067.56
2022-11-15T20:24:05.355Z,100070.06
2022-11-15T20:26:33.383Z,100075.19
2022-11-15T20:29:02.990Z,100071.78
2022-11-15T20:31:31.843Z,100055.03
2022-11-15T20:33:59.690Z,100064.44
2022-11-15T20:36:27.869Z,100063.59
2022-11-15T20:38:59.498Z,100066.16
2022-11-15T20:41:28.136Z,100059.59
2022-11-15T20:43:55.980Z,100067.06
2022-11-15T20:46:23.988Z,100071.75
2022-11-15T20:48:51.520Z,100078.50
2022-11-15T20:51:20.445Z,100078.56
2022-11-15T20:53:48.453Z,100075.91
2022-11-15T20:56:18.972Z,100077.44
2022-11-15T20:58:48.251Z,100069.88
2022-11-15T21:01:17.877Z,100060.91
2022-11-15T21:03:45.737Z,100064.59
2022-11-15T21:06:13.717Z,100061.09
2022-11-15T21:09:00.278Z,100061.81
2022-11-15T21:11:46.738Z,100065.16
2022-11-15T21:14:14.301Z,100077.50
2022-11-15T21:16:42.171Z,100068.06
2022-11-15T21:19:10.185Z,100057.84
2022-11-15T21:21:38.801Z,100061.31
2022-11-15T21:24:08.107Z,100069.31
2022-11-15T21:26:36.644Z,100067.47
2022-11-15T21:29:04.875Z,100063.16
2022-11-15T21:31:32.915Z,100050.13
2022-11-15T21:34:03.936Z,100052.75
2022-11-15T21:36:31.914Z,100055.31
2022-11-15T21:38:59.574Z,100058.81
2022-11-15T21:41:27.891Z,100056.16
2022-11-15T21:44:03.432Z,100049.00
2022-11-15T21:46:32.256Z,100035.13
2022-11-15T21:49:00.027Z,100027.94
2022-11-15T21:51:27.896Z,100025.41
2022-11-15T21:53:56.357Z,100027.34
2022-11-15T21:56:25.737Z,100029.78
2022-11-15T21:58:54.896Z,100022.81
2022-11-15T22:01:43.325Z,100018.53
2022-11-15T22:04:11.165Z,100014.22
2022-11-15T22:06:39.280Z,100019.44
2022-11-15T22:09:07.739Z,100009.88
2022-11-15T22:11:36.616Z,100007.31
2022-11-15T22:14:04.647Z,100009.91
2022-11-15T22:16:33.290Z,99998.38
2022-11-15T22:19:01.233Z,99987.84
2022-11-15T22:21:29.531Z,99990.66
2022-11-15T22:23:57.612Z,99978.72
2022-11-15T22:26:25.716Z,99978.25
2022-11-15T22:28:53.481Z,99984.84
2022-11-15T22:31:21.527Z,99973.50
2022-11-15T22:33:49.404Z,99967.22
2022-11-15T22:36:17.579Z,99977.66
2022-11-15T22:38:45.405Z,99977.00
2022-11-15T22:41:13.552Z,99977.59
2022-11-15T22:43:41.290Z,99977.53
2022-11-15T22:46:10.517Z,99967.38
2022-11-15T22:48:39.851Z,99965.75
2022-11-15T22:51:08.572Z,99962.22
2022-11-15T22:53:36.576Z,99966.56
2022-11-15T22:56:06.218Z,99967.16
2022-11-15T22:58:34.515Z,99964.78
2022-11-15T23:01:05.029Z,99962.19
2022-11-15T23:03:34.216Z,99960.56
2022-11-15T23:06:07.167Z,99952.56
2022-11-15T23:08:35.572Z,99941.16
2022-11-15T23:11:23.335Z,99945.88
2022-11-15T23:13:52.238Z,99946.06
2022-11-15T23:16:24.027Z,99944.28
2022-11-15T23:18:54.627Z,99941.06
2022-11-15T23:22:07.551Z,99938.19
2022-11-15T23:24:35.410Z,99938.31
2022-11-15T23:27:07.380Z,99935.88
2022-11-15T23:29:56.438Z,99936.91
2022-11-15T23:32:43.058Z,99942.09
2022-11-15T23:35:10.975Z,99944.84
2022-11-15T23:37:39.098Z,99953.53
2022-11-15T23:40:07.515Z,99954.94
2022-11-15T23:42:35.573Z,99939.47
2022-11-15T23:45:03.498Z,99942.19
2022-11-15T23:47:31.500Z,99941.88
2022-11-15T23:49:59.236Z,99934.25
2022-11-15T23:52:27.313Z,99933.38
2022-11-15T23:54:55.050Z,99933.97
2022-11-15T23:57:23.363Z,99938.09
2022-11-15T23:59:51.221Z,99939.66
